sensor_id;sensor_type;location;lat;lon;timestamp;temperature;humidity
25154;DHT22;47555;51.038;6.280;2022-12-07T00:01:12;4.40;99.90
25154;DHT22;47555;51.038;6.280;2022-12-07T00:03:39;4.40;99.90
25154;DHT22;47555;51.038;6.280;2022-12-07T00:06:07;4.40;99.90
25154;DHT22;47555;51.038;6.280;2022-12-07T00:08:34;4.30;99.90
25154;DHT22;47555;51.038;6.280;2022-12-07T00:11:09;4.40;99.90
25154;DHT22;47555;51.038;6.280;2022-12-07T00:13:36;4.40;99.90
25154;DHT22;47555;51.038;6.280;2022-12-07T00:16:07;4.30;99.90
25154;DHT22;47555;51.038;6.280;2022-12-07T00:18:33;4.40;99.90
25154;DHT22;47555;51.038;6.280;2022-12-07T00:21:04;4.40;99.90
25154;DHT22;47555;51.038;6.280;2022-12-07T00:23:30;4.40;99.90
25154;DHT22;47555;51.038;6.280;2022-12-07T00:25:56;4.40;99.90
25154;DHT22;47555;51.038;6.280;2022-12-07T00:28:27;4.40;99.90
25154;DHT22;47555;51.038;6.280;2022-12-07T00:31:00;4.40;99.90
25154;DHT22;47555;51.038;6.280;2022-12-07T00:33:26;4.50;99.90
25154;DHT22;47555;51.038;6.280;2022-12-07T00:36:00;4.50;99.90
25154;DHT22;47555;51.038;6.280;2022-12-07T00:38:28;4.50;99.90
25154;DHT22;47555;51.038;6.280;2022-12-07T00:41:00;4.50;99.90
25154;DHT22;47555;51.038;6.280;2022-12-07T00:43:27;4.50;99.90
25154;DHT22;47555;51.038;6.280;2022-12-07T00:45:53;4.40;99.90
25154;DHT22;47555;51.038;6.280;2022-12-07T00:48:19;4.40;99.90
25154;DHT22;47555;51.038;6.280;2022-12-07T00:50:45;4.30;99.90
25154;DHT22;47555;51.038;6.280;2022-12-07T00:53:10;4.30;99.90
25154;DHT22;47555;51.038;6.280;2022-12-07T00:55:36;4.30;99.90
25154;DHT22;47555;51.038;6.280;2022-12-07T00:58:03;4.30;99.90
25154;DHT22;47555;51.038;6.280;2022-12-07T01:00:29;4.20;99.90
25154;DHT22;47555;51.038;6.280;2022-12-07T01:02:55;4.30;99.90
25154;DHT22;47555;51.038;6.280;2022-12-07T01:05:20;4.30;99.90
25154;DHT22;47555;51.038;6.280;2022-12-07T01:07:46;4.30;99.90
25154;DHT22;47555;51.038;6.280;2022-12-07T01:10:12;4.30;99.90
25154;DHT22;47555;51.038;6.280;2022-12-07T01:12:39;4.30;99.90
25154;DHT22;47555;51.038;6.280;2022-12-07T01:15:05;4.50;99.90
25154;DHT22;47555;51.038;6.280;2022-12-07T01:17:30;4.30;99.90
25154;DHT22;47555;51.038;6.280;2022-12-07T01:19:56;4.40;99.90
25154;DHT22;47555;51.038;6.280;2022-12-07T01:22:21;4.40;99.90
25154;DHT22;47555;51.038;6.280;2022-12-07T01:24:47;4.40;99.90
25154;DHT22;47555;51.038;6.280;2022-12-07T01:27:13;4.40;99.90
25154;DHT22;47555;51.038;6.280;2022-12-07T01:29:39;4.40;99.90
25154;DHT22;47555;51.038;6.280;2022-12-07T01:32:04;4.40;99.90
25154;DHT22;47555;51.038;6.280;2022-12-07T01:34:30;4.50;99.90
25154;DHT22;47555;51.038;6.280;2022-12-07T01:36:55;4.50;99.90
25154;DHT22;47555;51.038;6.280;2022-12-07T01:39:22;4.50;99.90
25154;DHT22;47555;51.038;6.280;2022-12-07T01:41:47;4.50;99.90
25154;DHT22;47555;51.038;6.280;2022-12-07T01:46:39;4.50;99.90
25154;DHT22;47555;51.038;6.280;2022-12-07T01:49:08;4.50;99.90
25154;DHT22;47555;51.038;6.280;2022-12-07T01:51:34;4.50;99.90
25154;DHT22;47555;51.038;6.280;2022-12-07T01:54:00;4.50;99.90
25154;DHT22;47555;51.038;6.280;2022-12-07T01:56:28;4.60;99.90
25154;DHT22;47555;51.038;6.280;2022-12-07T01:58:55;4.60;99.90
25154;DHT22;47555;51.038;6.280;2022-12-07T02:01:21;4.50;99.90
25154;DHT22;47555;51.038;6.280;2022-12-07T02:03:47;4.60;99.90
25154;DHT22;47555;51.038;6.280;2022-12-07T02:06:17;4.60;99.90
25154;DHT22;47555;51.038;6.280;2022-12-07T02:08:44;4.60;99.90
25154;DHT22;47555;51.038;6.280;2022-12-07T02:11:10;4.60;99.90
25154;DHT22;47555;51.038;6.280;2022-12-07T02:13:38;4.60;99.90
25154;DHT22;47555;51.038;6.280;2022-12-07T02:19:18;4.60;99.90
25154;DHT22;47555;51.038;6.280;2022-12-07T02:21:55;4.60;99.90
25154;DHT22;47555;51.038;6.280;2022-12-07T02:35:33;4.60;99.90
25154;DHT22;47555;51.038;6.280;2022-12-07T02:38:26;4.60;99.90
25154;DHT22;47555;51.038;6.280;2022-12-07T02:40:57;4.60;99.90
25154;DHT22;47555;51.038;6.280;2022-12-07T02:43:27;4.50;99.90
25154;DHT22;47555;51.038;6.280;2022-12-07T02:45:56;4.50;99.90
25154;DHT22;47555;51.038;6.280;2022-12-07T02:48:23;4.50;99.90
25154;DHT22;47555;51.038;6.280;2022-12-07T02:50:52;4.50;99.90
25154;DHT22;47555;51.038;6.280;2022-12-07T02:53:41;4.50;99.90
25154;DHT22;47555;51.038;6.280;2022-12-07T02:56:19;4.50;99.90
25154;DHT22;47555;51.038;6.280;2022-12-07T03:13:23;4.40;99.90
25154;DHT22;47555;51.038;6.280;2022-12-07T03:15:57;4.40;99.90
25154;DHT22;47555;51.038;6.280;2022-12-07T03:18:26;4.40;99.90
25154;DHT22;47555;51.038;6.280;2022-12-07T03:20:55;4.40;99.90
25154;DHT22;47555;51.038;6.280;2022-12-07T03:23:23;4.40;99.90
25154;DHT22;47555;51.038;6.280;2022-12-07T03:25:53;4.40;99.90
25154;DHT22;47555;51.038;6.280;2022-12-07T03:28:22;4.40;99.90
25154;DHT22;47555;51.038;6.280;2022-12-07T03:30:57;4.40;99.90
25154;DHT22;47555;51.038;6.280;2022-12-07T03:33:39;4.40;99.90
25154;DHT22;47555;51.038;6.280;2022-12-07T03:36:28;4.30;99.90
25154;DHT22;47555;51.038;6.280;2022-12-07T03:39:13;4.30;99.90
25154;DHT22;47555;51.038;6.280;2022-12-07T03:41:40;4.30;99.90
25154;DHT22;47555;51.038;6.280;2022-12-07T03:44:06;4.30;99.90
25154;DHT22;47555;51.038;6.280;2022-12-07T03:46:46;4.30;99.90
25154;DHT22;47555;51.038;6.280;2022-12-07T03:49:30;4.30;99.90
25154;DHT22;47555;51.038;6.280;2022-12-07T03:52:08;4.30;99.90
25154;DHT22;47555;51.038;6.280;2022-12-07T03:54:41;4.30;99.90
25154;DHT22;47555;51.038;6.280;2022-12-07T03:57:10;4.30;99.90
25154;DHT22;47555;51.038;6.280;2022-12-07T03:59:38;4.30;99.90
25154;DHT22;47555;51.038;6.280;2022-12-07T04:02:06;4.20;99.90
25154;DHT22;47555;51.038;6.280;2022-12-07T04:04:32;4.20;99.90
25154;DHT22;47555;51.038;6.280;2022-12-07T04:06:58;4.30;99.90
25154;DHT22;47555;51.038;6.280;2022-12-07T04:09:24;4.20;99.90
25154;DHT22;47555;51.038;6.280;2022-12-07T04:11:50;4.30;99.90
25154;DHT22;47555;51.038;6.280;2022-12-07T04:14:15;4.40;99.90
25154;DHT22;47555;51.038;6.280;2022-12-07T04:16:51;4.20;99.90
25154;DHT22;47555;51.038;6.280;2022-12-07T04:19:19;4.20;99.90
25154;DHT22;47555;51.038;6.280;2022-12-07T04:21:45;4.20;99.90
25154;DHT22;47555;51.038;6.280;2022-12-07T04:24:11;4.20;99.90
25154;DHT22;47555;51.038;6.280;2022-12-07T04:26:37;4.10;99.90
25154;DHT22;47555;51.038;6.280;2022-12-07T04:29:03;4.10;99.90
25154;DHT22;47555;51.038;6.280;2022-12-07T04:31:28;4.10;99.90
25154;DHT22;47555;51.038;6.280;2022-12-07T04:33:54;4.00;99.90
25154;DHT22;47555;51.038;6.280;2022-12-07T04:36:19;4.00;99.90
25154;DHT22;47555;51.038;6.280;2022-12-07T04:38:46;4.00;99.90
25154;DHT22;47555;51.038;6.280;2022-12-07T04:41:12;4.00;99.90
25154;DHT22;47555;51.038;6.280;2022-12-07T04:43:38;3.90;99.90
25154;DHT22;47555;51.038;6.280;2022-12-07T04:46:04;3.90;99.90
25154;DHT22;47555;51.038;6.280;2022-12-07T04:48:29;3.90;99.90
25154;DHT22;47555;51.038;6.280;2022-12-07T04:50:55;4.00;99.90
25154;DHT22;47555;51.038;6.280;2022-12-07T04:53:21;3.90;99.90
25154;DHT22;47555;51.038;6.280;2022-12-07T04:55:46;3.90;99.90
25154;DHT22;47555;51.038;6.280;2022-12-07T04:58:13;3.90;99.90
25154;DHT22;47555;51.038;6.280;2022-12-07T05:00:39;3.90;99.90
25154;DHT22;47555;51.038;6.280;2022-12-07T05:03:04;4.00;99.90
25154;DHT22;47555;51.038;6.280;2022-12-07T05:05:30;4.00;99.90
25154;DHT22;47555;51.038;6.280;2022-12-07T05:07:55;4.10;99.90
25154;DHT22;47555;51.038;6.280;2022-12-07T05:10:21;4.10;99.90
25154;DHT22;47555;51.038;6.280;2022-12-07T05:12:47;4.10;99.90
25154;DHT22;47555;51.038;6.280;2022-12-07T05:15:16;4.10;99.90
25154;DHT22;47555;51.038;6.280;2022-12-07T05:17:41;4.10;99.90
25154;DHT22;47555;51.038;6.280;2022-12-07T05:20:08;4.10;99.90
25154;DHT22;47555;51.038;6.280;2022-12-07T05:22:34;4.10;99.90
25154;DHT22;47555;51.038;6.280;2022-12-07T05:25:00;4.10;99.90
25154;DHT22;47555;51.038;6.280;2022-12-07T05:27:25;4.10;99.90
25154;DHT22;47555;51.038;6.280;2022-12-07T05:29:51;4.10;99.90
25154;DHT22;47555;51.038;6.280;2022-12-07T05:32:17;4.10;99.90
25154;DHT22;47555;51.038;6.280;2022-12-07T05:34:42;4.10;99.90
25154;DHT22;47555;51.038;6.280;2022-12-07T05:37:08;4.10;99.90
25154;DHT22;47555;51.038;6.280;2022-12-07T05:39:33;4.10;99.90
25154;DHT22;47555;51.038;6.280;2022-12-07T05:41:59;4.10;99.90
25154;DHT22;47555;51.038;6.280;2022-12-07T05:44:37;4.10;99.90
25154;DHT22;47555;51.038;6.280;2022-12-07T05:47:03;4.10;99.90
25154;DHT22;47555;51.038;6.280;2022-12-07T05:49:28;4.10;99.90
25154;DHT22;47555;51.038;6.280;2022-12-07T05:51:54;4.10;99.90
25154;DHT22;47555;51.038;6.280;2022-12-07T05:54:19;4.10;99.90
25154;DHT22;47555;51.038;6.280;2022-12-07T05:56:45;4.10;99.90
25154;DHT22;47555;51.038;6.280;2022-12-07T05:59:10;4.10;99.90
25154;DHT22;47555;51.038;6.280;2022-12-07T06:01:57;4.10;99.90
25154;DHT22;47555;51.038;6.280;2022-12-07T06:04:25;4.10;99.90
25154;DHT22;47555;51.038;6.280;2022-12-07T06:06:50;4.10;99.90
25154;DHT22;47555;51.038;6.280;2022-12-07T06:09:17;4.10;99.90
25154;DHT22;47555;51.038;6.280;2022-12-07T06:11:43;4.10;99.90
25154;DHT22;47555;51.038;6.280;2022-12-07T06:14:27;4.10;99.90
25154;DHT22;47555;51.038;6.280;2022-12-07T06:16:53;4.20;99.90
25154;DHT22;47555;51.038;6.280;2022-12-07T06:19:18;4.10;99.90
25154;DHT22;47555;51.038;6.280;2022-12-07T06:21:44;4.00;99.90
25154;DHT22;47555;51.038;6.280;2022-12-07T06:24:13;4.10;99.90
25154;DHT22;47555;51.038;6.280;2022-12-07T06:26:39;4.10;99.90
25154;DHT22;47555;51.038;6.280;2022-12-07T06:29:05;4.00;99.90
25154;DHT22;47555;51.038;6.280;2022-12-07T06:31:31;4.00;99.90
25154;DHT22;47555;51.038;6.280;2022-12-07T06:34:01;4.00;99.90
25154;DHT22;47555;51.038;6.280;2022-12-07T06:36:28;4.00;99.90
25154;DHT22;47555;51.038;6.280;2022-12-07T06:38:54;3.90;99.90
25154;DHT22;47555;51.038;6.280;2022-12-07T06:41:20;3.90;99.90
25154;DHT22;47555;51.038;6.280;2022-12-07T06:43:45;3.90;99.90
25154;DHT22;47555;51.038;6.280;2022-12-07T06:46:11;4.00;99.90
25154;DHT22;47555;51.038;6.280;2022-12-07T06:48:36;3.90;99.90
25154;DHT22;47555;51.038;6.280;2022-12-07T06:51:02;3.90;99.90
25154;DHT22;47555;51.038;6.280;2022-12-07T06:53:27;3.90;99.90
25154;DHT22;47555;51.038;6.280;2022-12-07T06:55:53;3.90;99.90
25154;DHT22;47555;51.038;6.280;2022-12-07T06:58:18;3.90;99.90
25154;DHT22;47555;51.038;6.280;2022-12-07T07:00:44;3.90;99.90
25154;DHT22;47555;51.038;6.280;2022-12-07T07:03:10;3.90;99.90
25154;DHT22;47555;51.038;6.280;2022-12-07T07:05:36;3.90;99.90
25154;DHT22;47555;51.038;6.280;2022-12-07T07:08:02;3.90;99.90
25154;DHT22;47555;51.038;6.280;2022-12-07T07:10:28;3.90;99.90
25154;DHT22;47555;51.038;6.280;2022-12-07T07:12:53;3.90;99.90
25154;DHT22;47555;51.038;6.280;2022-12-07T07:15:19;3.90;99.90
25154;DHT22;47555;51.038;6.280;2022-12-07T07:17:44;3.80;99.90
25154;DHT22;47555;51.038;6.280;2022-12-07T07:20:10;3.70;99.90
25154;DHT22;47555;51.038;6.280;2022-12-07T07:22:36;3.70;99.90
25154;DHT22;47555;51.038;6.280;2022-12-07T07:25:03;3.70;99.90
25154;DHT22;47555;51.038;6.280;2022-12-07T07:27:29;3.60;99.90
25154;DHT22;47555;51.038;6.280;2022-12-07T07:29:54;3.50;99.90
25154;DHT22;47555;51.038;6.280;2022-12-07T07:32:20;3.50;99.90
25154;DHT22;47555;51.038;6.280;2022-12-07T07:34:47;3.40;99.90
25154;DHT22;47555;51.038;6.280;2022-12-07T07:37:12;3.40;99.90
25154;DHT22;47555;51.038;6.280;2022-12-07T07:39:38;3.40;99.90
25154;DHT22;47555;51.038;6.280;2022-12-07T07:42:04;3.40;99.90
25154;DHT22;47555;51.038;6.280;2022-12-07T07:44:30;3.50;99.90
25154;DHT22;47555;51.038;6.280;2022-12-07T07:46:55;3.50;99.90
25154;DHT22;47555;51.038;6.280;2022-12-07T07:49:21;3.50;99.90
25154;DHT22;47555;51.038;6.280;2022-12-07T07:51:46;3.70;99.90
25154;DHT22;47555;51.038;6.280;2022-12-07T07:54:12;3.60;99.90
25154;DHT22;47555;51.038;6.280;2022-12-07T07:56:37;3.70;99.90
25154;DHT22;47555;51.038;6.280;2022-12-07T07:59:03;3.70;99.90
25154;DHT22;47555;51.038;6.280;2022-12-07T08:01:28;3.70;99.90
25154;DHT22;47555;51.038;6.280;2022-12-07T08:03:54;3.70;99.90
25154;DHT22;47555;51.038;6.280;2022-12-07T08:06:19;3.70;99.90
25154;DHT22;47555;51.038;6.280;2022-12-07T08:08:45;3.70;99.90
25154;DHT22;47555;51.038;6.280;2022-12-07T08:11:10;3.70;99.90
25154;DHT22;47555;51.038;6.280;2022-12-07T08:13:37;3.60;99.90
25154;DHT22;47555;51.038;6.280;2022-12-07T08:16:08;3.60;99.90
25154;DHT22;47555;51.038;6.280;2022-12-07T08:18:39;3.60;99.90
25154;DHT22;47555;51.038;6.280;2022-12-07T08:21:06;3.60;99.90
25154;DHT22;47555;51.038;6.280;2022-12-07T08:23:31;3.50;99.90
25154;DHT22;47555;51.038;6.280;2022-12-07T08:26:05;3.50;99.90
25154;DHT22;47555;51.038;6.280;2022-12-07T08:28:31;3.40;99.90
25154;DHT22;47555;51.038;6.280;2022-12-07T08:31:05;3.50;99.90
25154;DHT22;47555;51.038;6.280;2022-12-07T08:33:31;3.50;99.90
25154;DHT22;47555;51.038;6.280;2022-12-07T08:36:06;3.70;99.90
25154;DHT22;47555;51.038;6.280;2022-12-07T08:38:33;3.90;99.90
25154;DHT22;47555;51.038;6.280;2022-12-07T08:40:59;4.10;99.90
25154;DHT22;47555;51.038;6.280;2022-12-07T08:43:25;4.50;99.90
25154;DHT22;47555;51.038;6.280;2022-12-07T08:48:26;5.20;99.90
25154;DHT22;47555;51.038;6.280;2022-12-07T08:50:51;5.50;99.90
25154;DHT22;47555;51.038;6.280;2022-12-07T08:53:17;5.80;99.90
25154;DHT22;47555;51.038;6.280;2022-12-07T08:55:44;6.10;99.90
25154;DHT22;47555;51.038;6.280;2022-12-07T08:58:11;6.30;99.90
25154;DHT22;47555;51.038;6.280;2022-12-07T09:00:36;6.50;99.90
25154;DHT22;47555;51.038;6.280;2022-12-07T09:03:02;6.50;99.90
25154;DHT22;47555;51.038;6.280;2022-12-07T09:05:27;6.60;99.90
25154;DHT22;47555;51.038;6.280;2022-12-07T09:07:56;6.70;99.90
25154;DHT22;47555;51.038;6.280;2022-12-07T09:10:23;6.60;99.90
25154;DHT22;47555;51.038;6.280;2022-12-07T09:12:49;6.50;99.90
25154;DHT22;47555;51.038;6.280;2022-12-07T09:15:14;6.50;99.90
25154;DHT22;47555;51.038;6.280;2022-12-07T09:17:40;6.70;99.90
25154;DHT22;47555;51.038;6.280;2022-12-07T09:20:06;7.10;99.90
25154;DHT22;47555;51.038;6.280;2022-12-07T09:22:32;7.60;99.90
25154;DHT22;47555;51.038;6.280;2022-12-07T09:24:58;7.70;99.90
25154;DHT22;47555;51.038;6.280;2022-12-07T09:27:25;7.50;99.90
25154;DHT22;47555;51.038;6.280;2022-12-07T09:29:51;7.30;99.90
25154;DHT22;47555;51.038;6.280;2022-12-07T09:32:16;7.00;99.90
25154;DHT22;47555;51.038;6.280;2022-12-07T09:34:42;6.70;99.90
25154;DHT22;47555;51.038;6.280;2022-12-07T09:37:07;6.50;99.90
25154;DHT22;47555;51.038;6.280;2022-12-07T09:39:33;6.30;99.90
25154;DHT22;47555;51.038;6.280;2022-12-07T09:41:59;6.10;99.90
25154;DHT22;47555;51.038;6.280;2022-12-07T09:44:27;5.90;99.90
25154;DHT22;47555;51.038;6.280;2022-12-07T09:46:54;5.90;99.90
25154;DHT22;47555;51.038;6.280;2022-12-07T09:49:21;5.80;99.90
25154;DHT22;47555;51.038;6.280;2022-12-07T09:51:58;5.70;99.90
25154;DHT22;47555;51.038;6.280;2022-12-07T09:54:24;5.70;99.90
25154;DHT22;47555;51.038;6.280;2022-12-07T09:56:49;5.60;99.90
25154;DHT22;47555;51.038;6.280;2022-12-07T09:59:17;5.60;99.90
25154;DHT22;47555;51.038;6.280;2022-12-07T10:01:46;5.60;99.90
25154;DHT22;47555;51.038;6.280;2022-12-07T10:04:16;5.60;99.90
25154;DHT22;47555;51.038;6.280;2022-12-07T10:06:42;5.60;99.90
25154;DHT22;47555;51.038;6.280;2022-12-07T10:09:13;5.60;99.90
25154;DHT22;47555;51.038;6.280;2022-12-07T10:12:07;5.50;99.90
25154;DHT22;47555;51.038;6.280;2022-12-07T10:14:36;5.50;99.90
25154;DHT22;47555;51.038;6.280;2022-12-07T10:17:02;5.50;99.90
25154;DHT22;47555;51.038;6.280;2022-12-07T10:19:48;5.40;99.90
25154;DHT22;47555;51.038;6.280;2022-12-07T10:22:16;5.30;99.90
25154;DHT22;47555;51.038;6.280;2022-12-07T10:24:43;5.30;99.90
25154;DHT22;47555;51.038;6.280;2022-12-07T10:27:32;5.20;99.90
25154;DHT22;47555;51.038;6.280;2022-12-07T10:29:58;5.20;99.90
25154;DHT22;47555;51.038;6.280;2022-12-07T10:32:33;5.10;99.90
25154;DHT22;47555;51.038;6.280;2022-12-07T10:35:31;5.10;99.90
25154;DHT22;47555;51.038;6.280;2022-12-07T10:37:59;5.20;99.90
25154;DHT22;47555;51.038;6.280;2022-12-07T10:40:34;5.20;99.90
25154;DHT22;47555;51.038;6.280;2022-12-07T10:46:58;5.40;99.90
25154;DHT22;47555;51.038;6.280;2022-12-07T10:49:05;5.40;99.90
25154;DHT22;47555;51.038;6.280;2022-12-07T10:51:50;5.40;99.90
25154;DHT22;47555;51.038;6.280;2022-12-07T11:06:34;6.20;99.90
25154;DHT22;47555;51.038;6.280;2022-12-07T11:12:02;6.60;99.90
25154;DHT22;47555;51.038;6.280;2022-12-07T11:20:05;6.80;99.90
25154;DHT22;47555;51.038;6.280;2022-12-07T11:22:43;6.60;99.90
25154;DHT22;47555;51.038;6.280;2022-12-07T11:33:47;6.60;99.90
25154;DHT22;47555;51.038;6.280;2022-12-07T11:36:38;6.60;99.90
25154;DHT22;47555;51.038;6.280;2022-12-07T11:39:22;6.70;99.90
25154;DHT22;47555;51.038;6.280;2022-12-07T11:41:56;6.80;99.90
25154;DHT22;47555;51.038;6.280;2022-12-07T11:44:52;6.90;99.90
25154;DHT22;47555;51.038;6.280;2022-12-07T11:47:35;7.00;99.90
25154;DHT22;47555;51.038;6.280;2022-12-07T11:52:53;7.10;99.90
25154;DHT22;47555;51.038;6.280;2022-12-07T12:00:51;7.00;99.90
25154;DHT22;47555;51.038;6.280;2022-12-07T12:03:29;7.00;99.90
25154;DHT22;47555;51.038;6.280;2022-12-07T12:05:57;6.90;99.90
25154;DHT22;47555;51.038;6.280;2022-12-07T12:08:36;6.90;99.90
25154;DHT22;47555;51.038;6.280;2022-12-07T12:11:19;6.80;99.90
25154;DHT22;47555;51.038;6.280;2022-12-07T12:19:40;6.80;99.90
25154;DHT22;47555;51.038;6.280;2022-12-07T12:22:17;6.90;99.90
25154;DHT22;47555;51.038;6.280;2022-12-07T12:24:45;6.80;99.90
25154;DHT22;47555;51.038;6.280;2022-12-07T12:27:33;6.80;99.90
25154;DHT22;47555;51.038;6.280;2022-12-07T12:30:02;6.70;99.90
25154;DHT22;47555;51.038;6.280;2022-12-07T12:32:37;6.60;99.90
25154;DHT22;47555;51.038;6.280;2022-12-07T12:37:54;6.70;99.90
25154;DHT22;47555;51.038;6.280;2022-12-07T12:42:51;6.80;99.90
25154;DHT22;47555;51.038;6.280;2022-12-07T12:45:22;6.80;99.90
25154;DHT22;47555;51.038;6.280;2022-12-07T12:50:34;6.90;99.90
25154;DHT22;47555;51.038;6.280;2022-12-07T12:58:37;7.20;99.90
25154;DHT22;47555;51.038;6.280;2022-12-07T13:01:33;7.20;99.90
25154;DHT22;47555;51.038;6.280;2022-12-07T13:04:02;7.20;99.90
25154;DHT22;47555;51.038;6.280;2022-12-07T13:06:35;7.20;99.90
25154;DHT22;47555;51.038;6.280;2022-12-07T13:09:03;7.20;99.90
25154;DHT22;47555;51.038;6.280;2022-12-07T13:11:33;7.10;99.90
25154;DHT22;47555;51.038;6.280;2022-12-07T13:17:55;7.00;99.90
25154;DHT22;47555;51.038;6.280;2022-12-07T13:25:18;6.80;99.90
25154;DHT22;47555;51.038;6.280;2022-12-07T13:28:08;6.70;99.90
25154;DHT22;47555;51.038;6.280;2022-12-07T13:30:47;6.70;99.90
25154;DHT22;47555;51.038;6.280;2022-12-07T13:33:14;6.70;99.90
25154;DHT22;47555;51.038;6.280;2022-12-07T13:35:41;6.60;99.90
25154;DHT22;47555;51.038;6.280;2022-12-07T13:38:33;6.60;99.90
25154;DHT22;47555;51.038;6.280;2022-12-07T13:41:13;6.50;99.90
25154;DHT22;47555;51.038;6.280;2022-12-07T13:43:43;6.50;99.90
25154;DHT22;47555;51.038;6.280;2022-12-07T13:46:09;6.50;99.90
25154;DHT22;47555;51.038;6.280;2022-12-07T13:48:48;6.50;99.90
25154;DHT22;47555;51.038;6.280;2022-12-07T13:51:27;6.50;99.90
25154;DHT22;47555;51.038;6.280;2022-12-07T13:54:01;6.50;99.90
25154;DHT22;47555;51.038;6.280;2022-12-07T13:56:32;6.50;99.90
25154;DHT22;47555;51.038;6.280;2022-12-07T13:58:58;6.50;99.90
25154;DHT22;47555;51.038;6.280;2022-12-07T14:01:25;6.60;99.90
25154;DHT22;47555;51.038;6.280;2022-12-07T14:03:51;6.60;99.90
25154;DHT22;47555;51.038;6.280;2022-12-07T14:06:20;6.60;99.90
25154;DHT22;47555;51.038;6.280;2022-12-07T14:08:47;6.60;99.90
25154;DHT22;47555;51.038;6.280;2022-12-07T14:11:16;6.50;99.90
25154;DHT22;47555;51.038;6.280;2022-12-07T14:16:27;6.50;99.90
25154;DHT22;47555;51.038;6.280;2022-12-07T14:18:55;6.50;99.90
25154;DHT22;47555;51.038;6.280;2022-12-07T14:21:24;6.40;99.90
25154;DHT22;47555;51.038;6.280;2022-12-07T14:24:11;6.30;99.90
25154;DHT22;47555;51.038;6.280;2022-12-07T14:26:38;6.20;99.90
25154;DHT22;47555;51.038;6.280;2022-12-07T14:31:57;6.00;99.90
25154;DHT22;47555;51.038;6.280;2022-12-07T14:34:25;5.90;99.90
25154;DHT22;47555;51.038;6.280;2022-12-07T14:36:50;5.80;99.90
25154;DHT22;47555;51.038;6.280;2022-12-07T14:39:16;5.60;99.90
25154;DHT22;47555;51.038;6.280;2022-12-07T14:41:42;5.40;99.90
25154;DHT22;47555;51.038;6.280;2022-12-07T14:44:17;5.20;99.90
25154;DHT22;47555;51.038;6.280;2022-12-07T14:46:43;5.10;99.90
25154;DHT22;47555;51.038;6.280;2022-12-07T14:49:09;5.00;99.90
25154;DHT22;47555;51.038;6.280;2022-12-07T14:51:36;4.90;99.90
25154;DHT22;47555;51.038;6.280;2022-12-07T14:54:09;4.80;99.90
25154;DHT22;47555;51.038;6.280;2022-12-07T14:56:39;4.80;99.90
25154;DHT22;47555;51.038;6.280;2022-12-07T14:59:04;4.80;99.90
25154;DHT22;47555;51.038;6.280;2022-12-07T15:01:30;4.70;99.90
25154;DHT22;47555;51.038;6.280;2022-12-07T15:03:55;4.70;99.90
25154;DHT22;47555;51.038;6.280;2022-12-07T15:06:21;4.70;99.90
25154;DHT22;47555;51.038;6.280;2022-12-07T15:08:47;4.80;99.90
25154;DHT22;47555;51.038;6.280;2022-12-07T15:11:17;4.80;99.90
25154;DHT22;47555;51.038;6.280;2022-12-07T15:13:43;4.80;99.90
25154;DHT22;47555;51.038;6.280;2022-12-07T15:16:27;4.80;99.90
25154;DHT22;47555;51.038;6.280;2022-12-07T15:18:52;4.80;99.90
25154;DHT22;47555;51.038;6.280;2022-12-07T15:21:18;4.80;99.90
25154;DHT22;47555;51.038;6.280;2022-12-07T15:23:43;4.80;99.90
25154;DHT22;47555;51.038;6.280;2022-12-07T15:26:11;4.80;99.90
25154;DHT22;47555;51.038;6.280;2022-12-07T15:28:36;4.80;99.90
25154;DHT22;47555;51.038;6.280;2022-12-07T15:31:02;4.80;99.90
25154;DHT22;47555;51.038;6.280;2022-12-07T15:33:27;4.70;99.90
25154;DHT22;47555;51.038;6.280;2022-12-07T15:35:53;4.60;99.90
25154;DHT22;47555;51.038;6.280;2022-12-07T15:38:18;4.60;99.90
25154;DHT22;47555;51.038;6.280;2022-12-07T15:40:47;4.50;99.90
25154;DHT22;47555;51.038;6.280;2022-12-07T15:43:12;4.40;99.90
25154;DHT22;47555;51.038;6.280;2022-12-07T15:46:13;4.40;99.90
25154;DHT22;47555;51.038;6.280;2022-12-07T15:48:39;4.30;99.90
25154;DHT22;47555;51.038;6.280;2022-12-07T15:51:06;4.30;99.90
25154;DHT22;47555;51.038;6.280;2022-12-07T15:53:33;4.30;99.90
25154;DHT22;47555;51.038;6.280;2022-12-07T15:55:58;4.20;99.90
25154;DHT22;47555;51.038;6.280;2022-12-07T15:58:24;4.20;99.90
25154;DHT22;47555;51.038;6.280;2022-12-07T16:00:49;4.20;99.90
25154;DHT22;47555;51.038;6.280;2022-12-07T16:03:15;4.20;99.90
25154;DHT22;47555;51.038;6.280;2022-12-07T16:05:40;4.10;99.90
25154;DHT22;47555;51.038;6.280;2022-12-07T16:08:06;4.10;99.90
25154;DHT22;47555;51.038;6.280;2022-12-07T16:10:32;4.00;99.90
25154;DHT22;47555;51.038;6.280;2022-12-07T16:12:57;4.00;99.90
25154;DHT22;47555;51.038;6.280;2022-12-07T16:15:23;3.90;99.90
25154;DHT22;47555;51.038;6.280;2022-12-07T16:17:51;3.90;99.90
25154;DHT22;47555;51.038;6.280;2022-12-07T16:20:16;3.80;99.90
25154;DHT22;47555;51.038;6.280;2022-12-07T16:22:42;3.80;99.90
25154;DHT22;47555;51.038;6.280;2022-12-07T16:25:08;3.80;99.90
25154;DHT22;47555;51.038;6.280;2022-12-07T16:27:34;3.80;99.90
25154;DHT22;47555;51.038;6.280;2022-12-07T16:30:00;3.80;99.90
25154;DHT22;47555;51.038;6.280;2022-12-07T16:32:25;3.80;99.90
25154;DHT22;47555;51.038;6.280;2022-12-07T16:34:51;3.80;99.90
25154;DHT22;47555;51.038;6.280;2022-12-07T16:37:16;3.80;99.90
25154;DHT22;47555;51.038;6.280;2022-12-07T16:39:42;3.80;99.90
25154;DHT22;47555;51.038;6.280;2022-12-07T16:42:08;3.80;99.90
25154;DHT22;47555;51.038;6.280;2022-12-07T16:44:33;3.90;99.90
25154;DHT22;47555;51.038;6.280;2022-12-07T16:46:59;3.90;99.90
25154;DHT22;47555;51.038;6.280;2022-12-07T16:49:25;3.90;99.90
25154;DHT22;47555;51.038;6.280;2022-12-07T16:51:51;3.90;99.90
25154;DHT22;47555;51.038;6.280;2022-12-07T16:54:16;3.80;99.90
25154;DHT22;47555;51.038;6.280;2022-12-07T16:56:42;3.90;99.90
25154;DHT22;47555;51.038;6.280;2022-12-07T16:59:08;4.00;99.90
25154;DHT22;47555;51.038;6.280;2022-12-07T17:01:34;4.00;99.90
25154;DHT22;47555;51.038;6.280;2022-12-07T17:04:00;4.10;99.90
25154;DHT22;47555;51.038;6.280;2022-12-07T17:06:27;4.00;99.90
25154;DHT22;47555;51.038;6.280;2022-12-07T17:08:53;4.00;99.90
25154;DHT22;47555;51.038;6.280;2022-12-07T17:11:30;4.00;99.90
25154;DHT22;47555;51.038;6.280;2022-12-07T17:13:57;4.10;99.90
25154;DHT22;47555;51.038;6.280;2022-12-07T17:16:41;4.00;99.90
25154;DHT22;47555;51.038;6.280;2022-12-07T17:19:09;4.10;99.90
25154;DHT22;47555;51.038;6.280;2022-12-07T17:21:35;4.10;99.90
25154;DHT22;47555;51.038;6.280;2022-12-07T17:24:01;4.10;99.90
25154;DHT22;47555;51.038;6.280;2022-12-07T17:26:28;4.10;99.90
25154;DHT22;47555;51.038;6.280;2022-12-07T17:28:53;4.10;99.90
25154;DHT22;47555;51.038;6.280;2022-12-07T17:31:21;4.00;99.90
25154;DHT22;47555;51.038;6.280;2022-12-07T17:33:47;4.00;99.90
25154;DHT22;47555;51.038;6.280;2022-12-07T17:36:21;4.00;99.90
25154;DHT22;47555;51.038;6.280;2022-12-07T17:38:47;4.00;99.90
25154;DHT22;47555;51.038;6.280;2022-12-07T17:41:16;4.00;99.90
25154;DHT22;47555;51.038;6.280;2022-12-07T17:44:01;4.00;99.90